MET'MAP v2.0
soon released !

Expected late october,
this new version will be
more efficient, smarter,
and hosted on a brand new
server x3 powerfull...
...and still free !


Not compatible ?
Try the mobile version !

LOG IN : | Subscribe | Disclaimer | Who is Orbifly ? |
ICAO code :

TAF - DTTG Matmata - 28 Feb 2020 01:16 UTC - Data Source NOAA   


- Airport Elevation : 26 ft
- IATA code : GAE
- No reported NOTAMs.


DTTG - Matmata

Latest METAR recorded : 2015/08/11 08:00 DTTG 110800Z 14006KT 110V170 8000 NSC 31/20 Q1013 NOSIG
TAF TAF DTTG
Valid from the 27 at 22:00 until the 28 at 07:00 UTC


272100Z 2722/2807 10004KT 9999 FEW030
BECMG 2723/2801 19005KT

Source NOAA


MET'MAP, your aeronautical weather chart ! - Copyright ORBIFLY December 2007

Programming & Development : Alexandra Zaïnal
Co-Developer : Marc-Olivier Méhu
Technical & hardware support : Manuel Goepfert
Concept & Financing : Baudouin d'Aumeries